Time;durP1;ratioP1;P1;durP2;ratioP2;P2;SDS_P1;SDS_P2;PMS_P1;PMS_P2;Temp;Humidity;BMP_temperature;BMP_pressure;BME280_temperature;BME280_humidity;BME280_pressure;Samples;Min_cycle;Max_cycle;Signal;HPM_P1;HPM_P2
2024/03/14 00:01:50;;;;;;;10.55;2.13;;;11.20;99.90;;;;;;5043487;28;20049;-66
2024/03/14 00:04:18;;;;;;;8.75;1.98;;;11.20;99.90;;;;;;5043523;28;20051;-67
2024/03/14 00:06:46;;;;;;;8.85;2.17;;;11.20;99.90;;;;;;5050744;28;20045;-67
2024/03/14 00:09:13;;;;;;;7.13;2.15;;;11.20;99.90;;;;;;5038472;28;20381;-66
2024/03/14 00:11:40;;;;;;;9.27;1.92;;;11.20;99.90;;;;;;5044784;28;20085;-67
2024/03/14 00:14:08;;;;;;;9.25;2.70;;;11.20;99.90;;;;;;5047854;28;20053;-66
2024/03/14 00:16:35;;;;;;;8.38;2.05;;;11.20;99.90;;;;;;5039381;28;20065;-66
2024/03/14 00:19:02;;;;;;;14.52;2.35;;;11.20;99.90;;;;;;5047699;28;20057;-67
2024/03/14 00:21:29;;;;;;;6.55;2.00;;;11.20;99.90;;;;;;5049589;28;20480;-66
2024/03/14 00:23:55;;;;;;;12.48;1.60;;;11.20;99.90;;;;;;5039139;28;20102;-66
2024/03/14 00:26:23;;;;;;;7.82;1.77;;;11.20;99.90;;;;;;5041876;28;20049;-66
2024/03/14 00:28:52;;;;;;;12.38;2.35;;;11.20;99.90;;;;;;5048443;28;20054;-67
2024/03/14 00:31:20;;;;;;;8.23;2.15;;;11.20;99.90;;;;;;5046839;28;20067;-65
2024/03/14 00:33:46;;;;;;;6.68;2.22;;;11.20;99.90;;;;;;5049946;28;20048;-66
2024/03/14 00:36:14;;;;;;;9.38;2.35;;;11.20;99.90;;;;;;5043540;28;20041;-66
2024/03/14 00:38:42;;;;;;;9.82;3.50;;;11.20;99.90;;;;;;5055033;28;20048;-66
2024/03/14 00:41:13;;;;;;;5.05;1.63;;;11.20;99.90;;;;;;5048547;28;20128;-67
2024/03/14 00:43:40;;;;;;;9.43;2.03;;;11.20;99.90;;;;;;5042726;28;20049;-66
2024/03/14 00:46:07;;;;;;;8.57;1.98;;;11.20;99.90;;;;;;5042788;28;20053;-66
2024/03/14 00:48:34;;;;;;;9.13;1.60;;;11.10;99.90;;;;;;5049205;28;20107;-66
2024/03/14 00:51:01;;;;;;;11.90;2.50;;;11.10;99.90;;;;;;5046405;28;20057;-66
2024/03/14 00:53:28;;;;;;;5.57;1.60;;;11.10;99.90;;;;;;5048184;28;20059;-66
2024/03/14 00:55:55;;;;;;;10.63;2.38;;;11.00;99.90;;;;;;5048573;28;20099;-66
2024/03/14 00:58:22;;;;;;;11.80;2.22;;;11.00;99.90;;;;;;5048606;28;20080;-66
2024/03/14 01:00:50;;;;;;;9.88;2.28;;;11.00;99.90;;;;;;5046099;28;20086;-66
2024/03/14 01:03:17;;;;;;;9.50;2.72;;;11.00;99.90;;;;;;5048499;28;20107;-66
2024/03/14 01:05:44;;;;;;;8.85;2.80;;;11.00;99.90;;;;;;5047248;28;20174;-66
2024/03/14 01:08:11;;;;;;;10.60;2.78;;;11.00;99.90;;;;;;5047945;28;20103;-66
2024/03/14 01:10:38;;;;;;;10.98;2.38;;;11.00;99.90;;;;;;5047527;28;20118;-67
2024/03/14 01:13:07;;;;;;;5.43;2.10;;;10.90;99.90;;;;;;5046987;28;20264;-66
2024/03/14 01:15:33;;;;;;;8.95;2.15;;;10.90;99.90;;;;;;5047625;28;20041;-66
2024/03/14 01:18:00;;;;;;;9.88;2.72;;;10.90;99.90;;;;;;5047956;28;20525;-67
2024/03/14 01:20:27;;;;;;;5.95;1.73;;;10.90;99.90;;;;;;5047105;28;20095;-66
2024/03/14 01:22:54;;;;;;;7.72;2.88;;;10.90;99.90;;;;;;5048762;28;20045;-66
2024/03/14 01:25:21;;;;;;;6.15;2.00;;;10.90;99.90;;;;;;5046853;28;20041;-68
2024/03/14 01:27:49;;;;;;;10.27;2.03;;;10.90;99.90;;;;;;5047348;28;20106;-67
2024/03/14 01:30:16;;;;;;;8.50;2.30;;;10.90;99.90;;;;;;5042621;28;20041;-67
2024/03/14 01:32:43;;;;;;;6.50;3.05;;;10.80;99.90;;;;;;5047254;28;20420;-65
2024/03/14 01:35:09;;;;;;;12.82;2.92;;;10.80;99.90;;;;;;5037741;28;20045;-68
2024/03/14 01:37:36;;;;;;;7.38;2.00;;;10.80;99.90;;;;;;5048202;28;21091;-66
2024/03/14 01:40:04;;;;;;;12.40;2.50;;;10.80;99.90;;;;;;5040658;28;20041;-66
2024/03/14 01:47:42;;;;;;;6.70;2.40;;;10.70;99.90;;;;;;4994815;28;20060;-66
2024/03/14 01:50:11;;;;;;;7.00;2.33;;;10.70;99.90;;;;;;4998547;28;20045;-67
2024/03/14 01:52:37;;;;;;;6.63;1.70;;;10.70;99.90;;;;;;5001252;28;20105;-67
2024/03/14 01:55:04;;;;;;;14.25;3.40;;;10.70;99.90;;;;;;5007150;28;20436;-67
2024/03/14 01:57:31;;;;;;;11.93;3.55;;;10.60;99.90;;;;;;4988428;28;20056;-66
2024/03/14 01:59:58;;;;;;;11.10;3.28;;;10.70;99.90;;;;;;5005723;28;20088;-67
2024/03/14 02:02:25;;;;;;;11.13;1.77;;;10.70;99.90;;;;;;4991430;28;20575;-67
2024/03/14 02:05:16;;;;;;;10.75;2.25;;;10.70;99.90;;;;;;5003390;28;20159;-66
2024/03/14 02:07:43;;;;;;;5.70;1.60;;;10.70;99.90;;;;;;4986858;28;20073;-67
2024/03/14 02:10:13;;;;;;;7.97;1.73;;;10.60;99.90;;;;;;5002071;28;20548;-67
2024/03/14 02:12:39;;;;;;;4.13;1.77;;;10.60;99.90;;;;;;5004226;28;20052;-66
2024/03/14 02:15:07;;;;;;;6.75;1.88;;;10.60;99.90;;;;;;5007303;28;20092;-67
2024/03/14 02:17:35;;;;;;;8.80;2.20;;;10.60;99.90;;;;;;5004426;28;20050;-66
2024/03/14 02:20:04;;;;;;;6.75;2.33;;;10.70;99.90;;;;;;5004229;28;20381;-66
2024/03/14 02:22:31;;;;;;;8.43;2.90;;;10.60;99.90;;;;;;5004196;28;20259;-66
2024/03/14 02:24:58;;;;;;;5.82;1.40;;;10.60;99.90;;;;;;5003568;28;20510;-66
2024/03/14 02:27:25;;;;;;;8.73;2.92;;;10.50;99.90;;;;;;5008504;28;20062;-66
2024/03/14 02:29:52;;;;;;;12.68;2.03;;;10.50;99.90;;;;;;5010876;28;20100;-66
2024/03/14 02:32:19;;;;;;;10.38;2.25;;;10.50;99.90;;;;;;5010018;28;20081;-66
2024/03/14 02:34:45;;;;;;;9.95;1.83;;;10.50;99.90;;;;;;5009709;28;20053;-66
2024/03/14 02:37:12;;;;;;;7.47;1.67;;;10.50;99.90;;;;;;5005514;28;20046;-66
2024/03/14 02:39:39;;;;;;;8.75;2.80;;;10.50;99.90;;;;;;5001516;28;20096;-66
2024/03/14 02:42:06;;;;;;;5.65;1.48;;;10.40;99.90;;;;;;5002623;28;20258;-66
2024/03/14 02:44:33;;;;;;;5.70;1.88;;;10.40;99.90;;;;;;5004736;28;20053;-66
2024/03/14 02:47:00;;;;;;;9.52;1.98;;;10.40;99.90;;;;;;5005971;28;20054;-66
2024/03/14 02:49:27;;;;;;;11.38;1.92;;;10.30;99.90;;;;;;5003180;28;20113;-66
2024/03/14 02:51:54;;;;;;;10.43;1.77;;;10.40;99.90;;;;;;4997071;28;20049;-66
2024/03/14 02:54:21;;;;;;;9.25;1.80;;;10.40;99.90;;;;;;5013719;28;20045;-66
2024/03/14 02:56:49;;;;;;;4.10;1.35;;;10.30;99.90;;;;;;5001852;28;20314;-66
2024/03/14 02:59:17;;;;;;;7.57;1.98;;;10.30;99.90;;;;;;5015500;28;20049;-66
2024/03/14 03:01:44;;;;;;;6.50;1.58;;;10.30;99.90;;;;;;5003399;28;20050;-66
2024/03/14 03:04:11;;;;;;;11.85;1.55;;;10.20;99.90;;;;;;4996326;28;20097;-66
2024/03/14 03:06:55;;;;;;;8.27;2.05;;;10.20;99.90;;;;;;5003384;28;20100;-66
2024/03/14 03:09:22;;;;;;;7.65;1.73;;;10.20;99.90;;;;;;4995576;28;20053;-65
2024/03/14 03:11:49;;;;;;;7.97;1.30;;;10.20;99.90;;;;;;5001698;28;20038;-67
2024/03/14 03:14:16;;;;;;;13.57;5.00;;;10.20;99.90;;;;;;5000451;28;20054;-67
2024/03/14 03:16:44;;;;;;;4.68;1.48;;;10.20;99.90;;;;;;5005198;28;20042;-66
2024/03/14 03:19:11;;;;;;;5.25;1.55;;;10.20;99.90;;;;;;4990680;28;20042;-66
2024/03/14 03:21:38;;;;;;;4.88;1.45;;;10.20;99.90;;;;;;5000975;28;20042;-66
2024/03/14 03:24:07;;;;;;;8.88;1.67;;;10.20;99.90;;;;;;5000844;28;20077;-66
2024/03/14 03:26:34;;;;;;;6.28;1.58;;;10.20;99.90;;;;;;5001545;28;20043;-68
2024/03/14 03:29:01;;;;;;;6.65;1.52;;;10.20;99.90;;;;;;4997591;28;20096;-67
2024/03/14 03:31:28;;;;;;;5.32;1.65;;;10.20;99.90;;;;;;5005845;28;20550;-67
2024/03/14 03:33:56;;;;;;;8.02;1.52;;;10.20;99.90;;;;;;5000898;28;20058;-68
2024/03/14 03:36:23;;;;;;;5.70;1.05;;;10.20;99.90;;;;;;4998931;28;20109;-68
2024/03/14 03:38:50;;;;;;;7.30;1.50;;;10.20;99.90;;;;;;5005767;28;20041;-67
2024/03/14 03:41:19;;;;;;;9.20;1.60;;;10.20;99.90;;;;;;5004955;28;20046;-67
2024/03/14 03:43:52;;;;;;;5.60;1.48;;;10.10;99.90;;;;;;5002390;28;20226;-66
2024/03/14 03:46:19;;;;;;;9.45;1.73;;;10.10;99.90;;;;;;5004791;28;20058;-66
2024/03/14 03:48:46;;;;;;;6.03;1.60;;;10.00;99.90;;;;;;5003474;28;20567;-66
2024/03/14 03:51:13;;;;;;;8.25;2.25;;;10.00;99.90;;;;;;5003484;28;20046;-66
2024/03/14 03:53:40;;;;;;;5.93;1.92;;;10.00;99.90;;;;;;5010364;28;20046;-66
2024/03/14 03:56:07;;;;;;;6.63;1.60;;;10.10;99.90;;;;;;5017034;28;20100;-66
2024/03/14 03:58:34;;;;;;;3.90;1.83;;;10.10;99.90;;;;;;5007792;28;20141;-66
2024/03/14 04:01:10;;;;;;;6.80;1.70;;;10.00;99.90;;;;;;5003044;28;20093;-66
2024/03/14 04:03:40;;;;;;;4.20;1.67;;;10.00;99.90;;;;;;5006093;28;20584;-68
2024/03/14 04:06:10;;;;;;;8.48;2.97;;;10.00;99.90;;;;;;5004237;28;20501;-68
2024/03/14 04:08:37;;;;;;;3.95;1.45;;;10.00;99.90;;;;;;4987988;28;20046;-67
2024/03/14 04:11:07;;;;;;;4.35;1.50;;;10.00;99.90;;;;;;5025185;28;20132;-67
2024/03/14 04:13:35;;;;;;;3.90;1.40;;;10.00;99.90;;;;;;5008549;28;20108;-67
2024/03/14 04:16:05;;;;;;;5.20;1.30;;;9.90;99.90;;;;;;5010886;28;20401;-67
2024/03/14 04:18:32;;;;;;;12.55;1.63;;;10.00;99.90;;;;;;5005736;28;20045;-67
2024/03/14 04:20:59;;;;;;;5.35;1.73;;;10.00;99.90;;;;;;5007118;28;20053;-67
2024/03/14 04:23:26;;;;;;;4.85;1.58;;;10.00;99.90;;;;;;5007207;28;20042;-67
2024/03/14 04:25:56;;;;;;;11.50;1.75;;;9.90;99.90;;;;;;5008767;28;20053;-67
2024/03/14 04:28:25;;;;;;;9.32;1.50;;;9.90;99.90;;;;;;5004176;28;20057;-67
2024/03/14 04:30:53;;;;;;;5.38;1.77;;;9.90;99.90;;;;;;5008099;28;20049;-67
2024/03/14 04:33:19;;;;;;;7.03;1.65;;;9.90;99.90;;;;;;5006454;28;20050;-67
2024/03/14 04:35:47;;;;;;;5.03;1.33;;;9.90;99.90;;;;;;5009670;28;20052;-67
2024/03/14 04:38:14;;;;;;;6.50;1.90;;;10.00;99.90;;;;;;5004843;28;20052;-67
2024/03/14 04:40:40;;;;;;;7.78;1.48;;;9.90;99.90;;;;;;5007493;28;20108;-66
2024/03/14 04:43:07;;;;;;;4.72;1.65;;;9.90;99.90;;;;;;5010026;28;20054;-66
2024/03/14 04:45:35;;;;;;;3.20;1.25;;;9.90;99.90;;;;;;5007643;28;20364;-68
2024/03/14 04:48:05;;;;;;;2.40;0.93;;;9.90;99.90;;;;;;5009049;28;20069;-67
2024/03/14 04:50:33;;;;;;;5.35;1.25;;;9.90;99.90;;;;;;5000898;28;20062;-67
2024/03/14 04:53:00;;;;;;;3.70;1.17;;;9.90;99.90;;;;;;5005732;28;20070;-67
2024/03/14 04:55:27;;;;;;;7.60;1.52;;;9.90;99.90;;;;;;5006029;28;20056;-67
2024/03/14 04:57:54;;;;;;;5.03;1.20;;;9.90;99.90;;;;;;5010487;28;20041;-67
2024/03/14 05:00:21;;;;;;;6.30;1.15;;;9.90;99.90;;;;;;5007469;28;20042;-68
2024/03/14 05:02:50;;;;;;;8.13;1.00;;;9.80;99.90;;;;;;5009142;28;20053;-66
2024/03/14 05:05:23;;;;;;;5.57;1.30;;;9.90;99.90;;;;;;5006564;28;20042;-67
2024/03/14 05:07:50;;;;;;;6.20;1.75;;;9.80;99.90;;;;;;5004833;28;20137;-67
2024/03/14 05:10:20;;;;;;;5.32;1.95;;;9.80;99.90;;;;;;5007712;28;20050;-67
2024/03/14 05:12:48;;;;;;;3.97;1.52;;;9.80;99.90;;;;;;4995745;28;20046;-68
2024/03/14 05:15:15;;;;;;;5.25;1.88;;;9.80;99.90;;;;;;5005886;28;20092;-68
2024/03/14 05:17:44;;;;;;;7.15;1.90;;;9.70;99.90;;;;;;5010001;28;20066;-67
2024/03/14 05:20:13;;;;;;;6.07;1.50;;;9.70;99.90;;;;;;5006494;28;20050;-67
2024/03/14 05:22:42;;;;;;;5.43;1.95;;;9.70;99.90;;;;;;5008977;28;20052;-67
2024/03/14 05:25:11;;;;;;;8.93;2.30;;;9.70;99.90;;;;;;4997015;28;20127;-67
2024/03/14 05:27:39;;;;;;;9.77;3.10;;;9.70;99.90;;;;;;5009283;28;20046;-67
2024/03/14 05:30:06;;;;;;;10.57;2.90;;;9.60;99.90;;;;;;5007422;28;20050;-67
2024/03/14 05:32:34;;;;;;;12.90;2.58;;;9.60;99.90;;;;;;5006703;28;20073;-67
2024/03/14 05:35:01;;;;;;;10.05;2.30;;;9.60;99.90;;;;;;5008160;28;20349;-67
2024/03/14 05:37:29;;;;;;;6.35;2.17;;;9.60;99.90;;;;;;5006606;28;20140;-67
2024/03/14 05:39:58;;;;;;;16.83;2.63;;;9.60;99.90;;;;;;5008203;28;20088;-67
2024/03/14 05:42:25;;;;;;;10.45;3.60;;;9.60;99.90;;;;;;5008590;28;20053;-67
2024/03/14 05:44:55;;;;;;;8.68;2.75;;;9.60;99.90;;;;;;5007202;28;20514;-67
2024/03/14 05:47:24;;;;;;;10.57;3.40;;;9.60;99.90;;;;;;5010475;28;20053;-67
2024/03/14 05:49:51;;;;;;;13.98;3.85;;;9.60;99.90;;;;;;5007538;28;20054;-67
2024/03/14 05:52:18;;;;;;;7.18;2.90;;;9.60;99.90;;;;;;5023114;28;20099;-68
2024/03/14 05:54:45;;;;;;;11.32;3.10;;;9.60;99.90;;;;;;5005834;28;20049;-68
2024/03/14 05:57:14;;;;;;;10.77;3.50;;;9.60;99.90;;;;;;5007220;28;20042;-67
2024/03/14 05:59:41;;;;;;;5.85;3.50;;;9.70;99.90;;;;;;5005579;28;20073;-67
2024/03/14 06:02:08;;;;;;;14.07;3.85;;;9.70;99.90;;;;;;5004553;28;20049;-66
2024/03/14 06:04:35;;;;;;;8.57;3.92;;;9.70;99.90;;;;;;5002442;28;20046;-66
2024/03/14 06:07:02;;;;;;;12.90;3.97;;;9.70;99.90;;;;;;5005447;28;20046;-67
2024/03/14 06:09:32;;;;;;;14.15;4.07;;;9.70;99.90;;;;;;5002487;28;20547;-67
2024/03/14 06:12:05;;;;;;;9.75;3.80;;;9.70;99.90;;;;;;5021958;28;20046;-67
2024/03/14 06:14:32;;;;;;;7.75;3.60;;;9.70;99.90;;;;;;5007181;28;20046;-67
2024/03/14 06:17:00;;;;;;;15.10;4.95;;;9.70;99.90;;;;;;5007991;28;20059;-68
2024/03/14 06:19:27;;;;;;;15.23;4.82;;;9.70;99.90;;;;;;4999048;28;20049;-67
2024/03/14 06:21:56;;;;;;;15.77;4.60;;;9.70;99.90;;;;;;5006208;28;20054;-68
2024/03/14 06:24:24;;;;;;;14.02;4.43;;;9.70;99.90;;;;;;5003337;28;20060;-66
2024/03/14 06:26:51;;;;;;;13.15;4.72;;;9.70;99.90;;;;;;5000241;28;20050;-65
2024/03/14 06:29:18;;;;;;;19.08;5.60;;;9.70;99.90;;;;;;5005174;28;20057;-66
2024/03/14 06:31:45;;;;;;;12.60;5.40;;;9.80;99.90;;;;;;5004505;28;20050;-65
2024/03/14 06:34:13;;;;;;;8.32;4.78;;;9.80;99.90;;;;;;5005048;28;20046;-66
2024/03/14 06:36:39;;;;;;;9.40;5.32;;;9.80;99.90;;;;;;5004738;28;20050;-66
2024/03/14 06:39:07;;;;;;;11.88;5.40;;;9.80;99.90;;;;;;5006704;28;20125;-67
2024/03/14 06:41:35;;;;;;;14.43;6.00;;;9.80;99.90;;;;;;5006737;28;20455;-67
2024/03/14 06:44:02;;;;;;;17.27;5.00;;;9.80;99.90;;;;;;5006037;28;20477;-67
2024/03/14 06:46:29;;;;;;;18.60;6.47;;;9.80;99.90;;;;;;5005714;28;20508;-70
2024/03/14 06:48:56;;;;;;;30.38;9.38;;;9.80;99.90;;;;;;5006632;28;20046;-67
2024/03/14 06:51:23;;;;;;;17.27;8.13;;;9.90;99.90;;;;;;5006864;28;20050;-68
2024/03/14 06:53:50;;;;;;;11.23;6.53;;;9.90;99.90;;;;;;5001252;28;20115;-67
2024/03/14 06:56:17;;;;;;;15.45;6.85;;;9.90;99.90;;;;;;5001171;28;20060;-65
2024/03/14 06:58:46;;;;;;;14.23;6.13;;;9.90;99.90;;;;;;5005328;28;20053;-65
2024/03/14 07:01:15;;;;;;;14.93;7.55;;;9.90;99.90;;;;;;5005879;28;20411;-66
2024/03/14 07:03:42;;;;;;;10.02;5.85;;;9.90;99.90;;;;;;5000856;28;20050;-68
2024/03/14 07:06:12;;;;;;;20.90;8.43;;;9.90;99.90;;;;;;4999168;28;20046;-66
2024/03/14 07:08:39;;;;;;;13.32;6.30;;;9.90;99.90;;;;;;5006448;28;20049;-67
2024/03/14 07:11:06;;;;;;;12.90;6.70;;;10.00;99.90;;;;;;5006423;28;20139;-67
2024/03/14 07:13:35;;;;;;;15.98;5.70;;;9.90;99.90;;;;;;5002247;28;20045;-68
2024/03/14 07:16:09;;;;;;;26.38;6.93;;;10.00;99.90;;;;;;5003684;28;20094;-67
2024/03/14 07:18:36;;;;;;;17.05;6.75;;;10.10;99.90;;;;;;5017748;28;20038;-68
2024/03/14 07:21:04;;;;;;;11.57;5.55;;;10.10;99.90;;;;;;5001596;28;20454;-67
2024/03/14 07:23:33;;;;;;;13.32;4.93;;;10.20;99.90;;;;;;4999894;28;20042;-67
2024/03/14 07:26:02;;;;;;;11.55;4.90;;;10.20;99.90;;;;;;5016686;28;20049;-67
2024/03/14 07:28:31;;;;;;;11.77;6.57;;;10.30;99.90;;;;;;4996723;28;20437;-67
2024/03/14 07:30:58;;;;;;;13.50;5.20;;;10.30;99.90;;;;;;5001441;28;20101;-67
2024/03/14 07:33:26;;;;;;;18.33;7.43;;;10.40;99.90;;;;;;5005829;28;20045;-68
2024/03/14 07:35:54;;;;;;;13.45;4.95;;;10.40;99.90;;;;;;5003192;28;20122;-70
2024/03/14 07:38:27;;;;;;;9.02;5.20;;;10.40;99.90;;;;;;5002890;28;20050;-68
2024/03/14 07:40:55;;;;;;;9.43;4.47;;;10.40;99.90;;;;;;5005003;28;20469;-68
2024/03/14 07:43:22;;;;;;;10.02;4.00;;;10.40;99.90;;;;;;4999997;28;20108;-70
2024/03/14 07:45:49;;;;;;;16.20;4.72;;;10.50;99.90;;;;;;5007095;28;20853;-67
2024/03/14 07:48:17;;;;;;;12.63;4.47;;;10.50;99.90;;;;;;5002278;28;20072;-69
2024/03/14 07:50:46;;;;;;;16.77;5.25;;;10.60;99.90;;;;;;5006252;28;20077;-67
2024/03/14 07:53:12;;;;;;;7.13;3.75;;;10.70;99.90;;;;;;5004948;28;20300;-68
2024/03/14 07:55:40;;;;;;;8.25;3.60;;;10.60;99.90;;;;;;5001131;28;20106;-67
2024/03/14 07:58:08;;;;;;;17.52;6.18;;;10.70;99.90;;;;;;5004264;28;20042;-67
2024/03/14 08:00:36;;;;;;;11.50;4.20;;;10.80;99.90;;;;;;5005566;28;20957;-67
2024/03/14 08:03:04;;;;;;;7.40;3.25;;;10.80;99.90;;;;;;5001568;28;20493;-66
2024/03/14 08:05:32;;;;;;;9.75;3.17;;;10.80;99.90;;;;;;5001746;28;20386;-66
2024/03/14 08:08:03;;;;;;;8.02;3.65;;;10.90;99.90;;;;;;5011365;28;20554;-66
2024/03/14 08:10:45;;;;;;;17.85;7.68;;;10.90;99.90;;;;;;5005718;28;20077;-68
2024/03/14 08:13:20;;;;;;;19.85;4.28;;;11.00;99.90;;;;;;5001400;28;20432;-67
2024/03/14 08:15:59;;;;;;;12.45;3.42;;;11.00;99.90;;;;;;5001101;28;20056;-67
2024/03/14 08:18:26;;;;;;;8.77;3.58;;;11.10;99.90;;;;;;4998829;28;20479;-66
2024/03/14 08:20:57;;;;;;;15.23;3.28;;;11.10;99.90;;;;;;5008301;28;20050;-67
2024/03/14 08:23:26;;;;;;;10.85;3.17;;;11.10;99.90;;;;;;5007591;28;20050;-67
2024/03/14 08:25:53;;;;;;;12.05;3.00;;;11.20;99.90;;;;;;5001794;28;20081;-66
2024/03/14 08:28:20;;;;;;;9.27;3.13;;;11.20;99.90;;;;;;5005266;28;20096;-66
2024/03/14 08:30:47;;;;;;;8.02;3.30;;;11.20;99.90;;;;;;5000738;28;20050;-65
2024/03/14 08:33:14;;;;;;;8.13;3.20;;;11.20;99.90;;;;;;4998123;28;20524;-66
2024/03/14 08:35:42;;;;;;;7.45;3.05;;;11.30;99.90;;;;;;5005821;28;20052;-66
2024/03/14 08:38:13;;;;;;;6.65;2.40;;;11.40;99.90;;;;;;5006595;28;20728;-65
2024/03/14 08:40:44;;;;;;;11.18;2.83;;;11.50;99.90;;;;;;5003044;28;20477;-65
2024/03/14 08:43:13;;;;;;;7.07;2.25;;;11.50;99.90;;;;;;5009210;28;20050;-65
2024/03/14 08:45:40;;;;;;;10.18;2.70;;;11.50;99.90;;;;;;5015679;28;20062;-66
2024/03/14 08:48:08;;;;;;;8.02;2.85;;;11.50;99.90;;;;;;5011505;28;20049;-67
2024/03/14 08:50:35;;;;;;;10.40;2.55;;;11.60;99.90;;;;;;5013014;28;20057;-67
2024/03/14 08:53:03;;;;;;;14.77;2.85;;;11.60;99.90;;;;;;5023826;28;20041;-67
2024/03/14 08:55:33;;;;;;;14.65;3.08;;;11.70;99.90;;;;;;5001573;28;20465;-65
2024/03/14 08:58:03;;;;;;;13.65;3.53;;;11.70;99.90;;;;;;5003870;28;20056;-66
2024/03/14 09:00:31;;;;;;;10.65;2.25;;;11.80;99.90;;;;;;5004091;28;20176;-65
2024/03/14 09:03:01;;;;;;;11.10;2.95;;;11.80;99.90;;;;;;5005283;28;20052;-66
2024/03/14 09:05:29;;;;;;;9.85;2.00;;;11.80;99.90;;;;;;5005885;28;20045;-66
2024/03/14 09:07:56;;;;;;;5.65;2.35;;;11.80;99.90;;;;;;5006405;28;20038;-67
2024/03/14 09:10:25;;;;;;;12.98;2.20;;;11.90;99.90;;;;;;5009107;28;20140;-66
2024/03/14 09:12:52;;;;;;;13.20;2.60;;;11.90;99.90;;;;;;5005356;28;20077;-66
2024/03/14 09:15:20;;;;;;;7.30;2.78;;;12.00;99.90;;;;;;4999440;28;20050;-66
2024/03/14 09:17:48;;;;;;;7.90;2.72;;;12.00;99.90;;;;;;5010321;28;20148;-65
2024/03/14 09:20:20;;;;;;;6.10;2.38;;;12.10;99.90;;;;;;5005454;28;20054;-66
2024/03/14 09:22:53;;;;;;;6.07;2.70;;;12.10;99.90;;;;;;5007027;28;20125;-67
2024/03/14 09:25:22;;;;;;;10.52;2.60;;;12.20;99.90;;;;;;5010260;28;20136;-66
2024/03/14 09:27:49;;;;;;;8.20;2.70;;;12.20;99.90;;;;;;5010417;28;20048;-66
2024/03/14 09:30:17;;;;;;;9.93;2.78;;;12.20;99.90;;;;;;5009588;28;20488;-65
2024/03/14 09:32:45;;;;;;;15.65;2.58;;;12.20;99.90;;;;;;5007478;28;20131;-66
2024/03/14 09:35:28;;;;;;;8.68;2.60;;;12.30;99.90;;;;;;5007653;28;20071;-66
2024/03/14 09:37:55;;;;;;;13.60;1.73;;;12.30;99.90;;;;;;5010240;28;20050;-67
2024/03/14 09:40:23;;;;;;;6.38;2.47;;;12.30;99.90;;;;;;5009736;28;20156;-68
2024/03/14 09:42:58;;;;;;;8.48;2.20;;;12.40;99.90;;;;;;5010750;28;20516;-68
2024/03/14 09:45:25;;;;;;;8.18;2.35;;;12.40;99.90;;;;;;5004839;28;20049;-67
2024/03/14 09:47:55;;;;;;;6.97;2.22;;;12.40;99.90;;;;;;5022260;28;20038;-67
2024/03/14 09:50:23;;;;;;;6.68;2.75;;;12.40;99.90;;;;;;5006708;28;20049;-67
2024/03/14 09:52:50;;;;;;;6.82;2.47;;;12.40;99.90;;;;;;5007908;28;20088;-66
2024/03/14 09:55:22;;;;;;;7.25;2.30;;;12.50;99.90;;;;;;5007725;28;20125;-67
2024/03/14 09:57:53;;;;;;;11.13;2.72;;;12.50;99.90;;;;;;5009888;28;20137;-67
2024/03/14 10:00:21;;;;;;;11.30;2.20;;;12.60;99.90;;;;;;5009214;28;20050;-68
2024/03/14 10:02:49;;;;;;;9.40;1.90;;;12.60;99.90;;;;;;5000999;28;20054;-67
2024/03/14 10:05:19;;;;;;;6.50;1.88;;;12.60;99.90;;;;;;5006596;28;20139;-68
2024/03/14 10:07:47;;;;;;;7.93;2.33;;;12.70;99.90;;;;;;5006574;28;20046;-66
2024/03/14 10:10:15;;;;;;;11.35;3.13;;;12.70;99.90;;;;;;5009214;28;20286;-67
2024/03/14 10:12:52;;;;;;;12.57;2.55;;;12.80;99.90;;;;;;5007024;28;20045;-66
2024/03/14 10:15:21;;;;;;;6.30;2.58;;;12.80;99.90;;;;;;5003842;28;20500;-66
2024/03/14 10:17:48;;;;;;;7.78;1.88;;;12.90;99.90;;;;;;5006281;28;20042;-66
2024/03/14 10:20:17;;;;;;;5.90;2.47;;;13.00;99.90;;;;;;5008828;28;20136;-66
2024/03/14 10:22:48;;;;;;;11.52;2.58;;;13.00;99.90;;;;;;5021592;28;20057;-66
2024/03/14 10:25:23;;;;;;;7.63;2.60;;;13.10;99.90;;;;;;5008475;28;20523;-66
2024/03/14 10:27:54;;;;;;;13.20;2.17;;;13.10;99.90;;;;;;5005887;28;20046;-65
2024/03/14 10:30:36;;;;;;;5.85;2.63;;;13.10;99.90;;;;;;5007563;28;20057;-68
2024/03/14 10:33:06;;;;;;;11.95;4.00;;;13.10;99.90;;;;;;5008241;28;20046;-66
2024/03/14 10:35:36;;;;;;;9.00;1.95;;;13.10;99.90;;;;;;5020613;28;20041;-66
2024/03/14 10:38:07;;;;;;;7.60;1.98;;;13.20;99.90;;;;;;5002417;28;20065;-66
2024/03/14 10:40:34;;;;;;;7.65;2.00;;;13.20;99.90;;;;;;5024459;28;20046;-66
2024/03/14 10:43:01;;;;;;;10.45;2.72;;;13.30;99.90;;;;;;4990382;28;20045;-67
2024/03/14 10:45:28;;;;;;;5.32;2.72;;;13.40;99.90;;;;;;5021998;28;20416;-66
2024/03/14 10:47:56;;;;;;;14.73;2.17;;;13.40;99.90;;;;;;5006542;28;20053;-67
2024/03/14 10:50:24;;;;;;;8.77;2.88;;;13.50;99.90;;;;;;5016056;28;20107;-66
2024/03/14 10:52:51;;;;;;;6.00;2.38;;;13.60;99.90;;;;;;5007256;28;20141;-67
2024/03/14 10:55:20;;;;;;;7.53;2.83;;;13.70;99.90;;;;;;5018301;28;20045;-67
2024/03/14 10:57:48;;;;;;;6.25;2.13;;;13.80;99.90;;;;;;5010118;28;20045;-66
2024/03/14 11:00:19;;;;;;;7.90;2.03;;;13.80;99.90;;;;;;5006948;28;20058;-69
2024/03/14 11:02:47;;;;;;;7.25;2.03;;;13.90;99.90;;;;;;5004673;28;20049;-67
2024/03/14 11:05:17;;;;;;;9.05;2.42;;;13.90;99.90;;;;;;5019204;28;20038;-66
2024/03/14 11:07:45;;;;;;;7.28;1.80;;;13.90;99.90;;;;;;5021307;28;20057;-67
2024/03/14 11:10:29;;;;;;;9.18;1.90;;;14.00;99.90;;;;;;5021564;28;20179;-66
2024/03/14 11:13:06;;;;;;;;;;;14.10;99.90;;;;;;5005154;28;20144;-66
2024/03/14 11:15:36;;;;;;;11.55;2.25;;;14.10;99.90;;;;;;5006239;28;20309;-66
2024/03/14 11:18:06;;;;;;;5.10;1.35;;;14.20;99.90;;;;;;5005864;28;20054;-66
2024/03/14 11:20:33;;;;;;;6.63;2.20;;;14.10;99.90;;;;;;5021970;28;20199;-67
2024/03/14 11:23:03;;;;;;;8.60;1.77;;;14.10;99.90;;;;;;5018941;28;20045;-65
2024/03/14 11:25:31;;;;;;;10.68;2.50;;;14.20;99.90;;;;;;5018806;28;20559;-67
2024/03/14 11:27:58;;;;;;;7.53;2.22;;;14.20;99.90;;;;;;4988699;28;20547;-67
2024/03/14 11:30:26;;;;;;;7.82;2.38;;;14.20;99.90;;;;;;5022588;28;20077;-67
2024/03/14 11:32:55;;;;;;;5.07;1.70;;;14.30;99.90;;;;;;4989490;28;20087;-66
2024/03/14 11:35:33;;;;;;;10.05;2.22;;;14.30;99.90;;;;;;5006308;28;20046;-67
2024/03/14 11:38:04;;;;;;;11.73;2.15;;;14.30;99.90;;;;;;5002950;28;20459;-67
2024/03/14 11:40:32;;;;;;;8.68;2.13;;;14.30;99.90;;;;;;5021218;28;20045;-67
2024/03/14 11:43:00;;;;;;;10.45;2.50;;;14.30;99.90;;;;;;5023123;28;20050;-67
2024/03/14 11:45:31;;;;;;;8.02;3.53;;;14.40;99.90;;;;;;5023974;28;20362;-67
2024/03/14 11:47:59;;;;;;;11.35;2.78;;;14.50;99.90;;;;;;5008329;28;20124;-68
2024/03/14 11:50:33;;;;;;;6.97;2.30;;;14.60;99.90;;;;;;5022875;28;20057;-68
2024/03/14 11:53:00;;;;;;;8.18;2.60;;;14.60;99.90;;;;;;5006791;28;20081;-66
2024/03/14 11:55:30;;;;;;;14.13;3.03;;;14.60;99.90;;;;;;5006263;28;20221;-67
2024/03/14 11:57:57;;;;;;;7.20;1.90;;;14.60;99.90;;;;;;5005399;28;20038;-67
2024/03/14 12:00:27;;;;;;;8.00;2.20;;;14.70;99.90;;;;;;5000920;28;20420;-67
2024/03/14 12:02:54;;;;;;;5.22;2.00;;;14.90;99.90;;;;;;5005045;28;20125;-67
2024/03/14 12:05:25;;;;;;;6.50;2.13;;;14.90;99.90;;;;;;5005239;28;20544;-67
2024/03/14 12:07:54;;;;;;;10.63;1.90;;;15.00;99.90;;;;;;5000688;28;20058;-67
2024/03/14 12:10:24;;;;;;;10.63;2.35;;;15.00;99.90;;;;;;5026482;28;20620;-67
2024/03/14 12:12:54;;;;;;;6.47;1.88;;;15.20;99.90;;;;;;5009719;28;20093;-67
2024/03/14 12:15:24;;;;;;;8.32;2.13;;;15.30;99.90;;;;;;5011812;28;20125;-67
2024/03/14 12:17:55;;;;;;;4.90;1.65;;;15.40;99.90;;;;;;5011476;28;20662;-67
2024/03/14 12:20:28;;;;;;;7.78;2.17;;;15.50;99.90;;;;;;5009452;28;20140;-67
2024/03/14 12:22:56;;;;;;;7.20;2.07;;;15.50;99.90;;;;;;5010133;28;20042;-66
2024/03/14 12:25:27;;;;;;;6.05;1.83;;;15.50;99.90;;;;;;5007869;28;20065;-68
2024/03/14 12:27:55;;;;;;;5.63;2.25;;;15.50;99.90;;;;;;5013579;28;20064;-67
2024/03/14 12:30:22;;;;;;;5.55;2.03;;;15.50;99.90;;;;;;5012314;28;20049;-66
2024/03/14 12:32:56;;;;;;;8.93;2.53;;;15.50;99.90;;;;;;5009559;28;20188;-67
2024/03/14 12:35:23;;;;;;;8.55;2.38;;;15.60;99.90;;;;;;5021738;28;20061;-66
2024/03/14 12:37:52;;;;;;;9.32;2.25;;;15.60;99.90;;;;;;5009301;28;20054;-67
2024/03/14 12:40:19;;;;;;;7.70;2.05;;;15.70;99.90;;;;;;5007459;28;20560;-67
2024/03/14 12:42:50;;;;;;;7.25;1.77;;;15.80;99.90;;;;;;5010872;28;20054;-67
2024/03/14 12:45:17;;;;;;;8.25;2.13;;;15.90;99.90;;;;;;5009609;28;20452;-67
2024/03/14 12:47:45;;;;;;;7.50;2.22;;;16.00;99.90;;;;;;5024535;28;20093;-67
2024/03/14 12:50:28;;;;;;;8.93;2.25;;;16.10;99.90;;;;;;5007900;28;20042;-67
2024/03/14 12:53:05;;;;;;;6.40;2.33;;;16.10;99.90;;;;;;5008984;28;20398;-67
2024/03/14 12:55:33;;;;;;;10.95;2.47;;;16.20;99.90;;;;;;5009441;28;20053;-68
2024/03/14 12:58:01;;;;;;;8.32;1.73;;;16.20;99.90;;;;;;5010312;28;20069;-65